Time;durP1;ratioP1;P1;durP2;ratioP2;P2;SDS_P1;SDS_P2;PMS_P1;PMS_P2;Temp;Humidity;BMP_temperature;BMP_pressure;BME280_temperature;BME280_humidity;BME280_pressure;Samples;Min_cycle;Max_cycle;Signal;HPM_P1;HPM_P2
2022/11/06 00:02:17;;;;;;;7.95;2.50;;;;;;;4.01;95.47;99769.92;1668106;85;20971;-63
2022/11/06 00:04:43;;;;;;;9.38;2.92;;;;;;;3.98;95.48;99769.98;1667212;86;21523;-62
2022/11/06 00:07:10;;;;;;;7.97;2.60;;;;;;;3.95;95.40;99770.02;1669178;86;21895;-63
2022/11/06 00:09:36;;;;;;;11.25;3.05;;;;;;;3.92;95.33;99770.08;1667642;86;20914;-62
2022/11/06 00:12:03;;;;;;;7.45;2.70;;;;;;;3.89;95.29;99770.14;1669125;86;20906;-62
2022/11/06 00:14:30;;;;;;;7.67;2.67;;;;;;;3.85;95.38;99774.52;1667856;86;20926;-63
2022/11/06 00:16:56;;;;;;;11.78;3.42;;;;;;;3.83;95.35;99780.59;1668543;86;21680;-63
2022/11/06 00:19:23;;;;;;;9.13;2.95;;;;;;;3.79;95.41;99783.23;1644937;87;21094;-63
2022/11/06 00:21:49;;;;;;;9.30;2.67;;;;;;;3.76;95.54;99785.88;1661224;86;21587;-63
2022/11/06 00:24:16;;;;;;;6.67;2.70;;;;;;;3.67;95.64;99786.05;1667682;86;20918;-63
2022/11/06 00:26:43;;;;;;;11.18;3.33;;;;;;;3.63;95.63;99774.51;1648481;85;20939;-62
2022/11/06 00:29:13;;;;;;;9.48;3.12;;;;;;;3.59;95.67;99772.43;1646836;85;20975;-63
2022/11/06 00:31:40;;;;;;;7.50;2.62;;;;;;;3.52;95.64;99763.08;1668800;86;21043;-62
2022/11/06 00:34:07;;;;;;;5.92;2.92;;;;;;;3.50;95.62;99767.00;1647522;87;20919;-62
2022/11/06 00:36:34;;;;;;;8.63;3.52;;;;;;;3.46;95.58;99764.48;1649798;85;21636;-63
2022/11/06 00:39:02;;;;;;;7.10;3.35;;;;;;;3.43;95.63;99776.16;1649657;87;20979;-62
2022/11/06 00:41:29;;;;;;;7.92;3.20;;;;;;;3.40;95.57;99781.38;1647728;87;21002;-60
2022/11/06 00:43:59;;;;;;;7.33;2.90;;;;;;;3.33;95.54;99784.06;1669044;86;21060;-63
2022/11/06 00:46:26;;;;;;;6.55;3.10;;;;;;;3.30;95.58;99787.95;1668271;86;20941;-62
2022/11/06 00:48:54;;;;;;;4.97;3.02;;;;;;;3.27;95.69;99781.56;1646365;87;20912;-62
2022/11/06 00:51:25;;;;;;;5.03;2.77;;;;;;;3.25;95.78;99778.17;1647982;87;20979;-62
2022/11/06 00:54:01;;;;;;;9.00;2.95;;;;;;;3.24;95.84;99780.77;1662661;85;20924;-63
2022/11/06 00:56:29;;;;;;;10.00;2.95;;;;;;;3.25;95.92;99775.59;1669112;86;21821;-63
2022/11/06 00:59:02;;;;;;;9.78;3.20;;;;;;;3.22;95.98;99773.06;1668314;86;20957;-63
2022/11/06 01:01:33;;;;;;;8.40;3.35;;;;;;;3.23;96.03;99782.50;1646222;86;20923;-62
2022/11/06 01:04:04;;;;;;;11.20;3.65;;;;;;;3.21;95.98;99778.23;1645825;86;20968;-62
2022/11/06 01:06:35;;;;;;;7.35;3.12;;;;;;;3.21;96.01;99770.05;1639426;87;21001;-63
2022/11/06 01:09:02;;;;;;;8.15;2.90;;;;;;;3.20;96.03;99770.09;1668754;86;21046;-63
2022/11/06 01:11:34;;;;;;;8.03;3.20;;;;;;;3.18;96.01;99776.56;1646862;86;21018;-63
2022/11/06 01:14:03;;;;;;;6.15;2.92;;;;;;;3.18;96.04;99768.81;1647063;86;21525;-63
2022/11/06 01:16:31;;;;;;;6.50;3.10;;;;;;;3.17;96.10;99769.70;1667925;84;21120;-62
2022/11/06 01:18:58;;;;;;;6.70;3.37;;;;;;;3.17;96.20;99774.86;1670017;84;20985;-63
2022/11/06 01:21:31;;;;;;;14.90;3.50;;;;;;;3.18;96.25;99773.98;1636554;87;21103;-63
2022/11/06 01:24:09;;;;;;;7.42;3.02;;;;;;;3.17;96.17;99769.70;1626647;86;21617;-62
2022/11/06 01:26:36;;;;;;;6.78;3.35;;;;;;;3.17;96.13;99772.28;1627443;88;20921;-63
2022/11/06 01:29:06;;;;;;;8.08;3.17;;;;;;;3.14;96.04;99773.63;1626291;86;20934;-62
2022/11/06 01:31:34;;;;;;;9.65;3.47;;;;;;;3.12;96.01;99775.38;1652921;86;20961;-63
2022/11/06 01:34:02;;;;;;;11.73;3.15;;;;;;;3.10;96.05;99773.25;1652612;85;21173;-63
2022/11/06 01:36:30;;;;;;;7.12;3.10;;;;;;;3.08;96.03;99769.83;1652323;86;21588;-63
2022/11/06 01:39:01;;;;;;;10.60;3.47;;;;;;;3.05;95.96;99770.77;1649876;86;27244;-63
2022/11/06 01:41:35;;;;;;;9.80;3.98;;;;;;;3.05;95.99;99777.63;1649176;85;20927;-63
2022/11/06 01:44:36;;;;;;;6.35;3.30;;;;;;;3.02;96.02;99775.09;1647108;86;20999;-62
2022/11/06 01:47:07;;;;;;;7.62;3.30;;;;;;;3.00;96.09;99771.70;1647288;85;21058;-63
2022/11/06 01:49:37;;;;;;;7.85;3.75;;;;;;;2.97;96.13;99774.31;1650228;86;20962;-63
2022/11/06 01:52:10;;;;;;;9.20;3.50;;;;;;;2.97;96.15;99769.15;1651603;85;21127;-63
2022/11/06 01:54:40;;;;;;;10.72;4.03;;;;;;;2.98;96.22;99773.01;1622799;87;21531;-63
2022/11/06 01:57:08;;;;;;;9.53;3.27;;;;;;;2.98;96.36;99771.72;1624377;87;20993;-63
2022/11/06 01:59:40;;;;;;;7.10;3.22;;;;;;;2.98;96.32;99778.61;1627065;86;21839;-63
2022/11/06 02:02:07;;;;;;;10.43;3.25;;;;;;;2.97;96.27;99774.31;1619786;87;21043;-63
2022/11/06 02:04:40;;;;;;;6.17;3.10;;;;;;;2.95;96.26;99764.03;1649648;85;20927;-63
2022/11/06 02:07:08;;;;;;;11.05;3.40;;;;;;;2.94;96.25;99766.63;1643506;87;21564;-62
2022/11/06 02:09:35;;;;;;;9.80;2.90;;;;;;;2.93;96.23;99758.48;1650981;86;20933;-62
2022/11/06 02:12:51;;;;;;;9.43;3.70;;;;;;;2.90;96.22;99769.25;1624333;87;21489;-62
2022/11/06 02:15:50;;;;;;;10.70;3.42;;;;;;;2.89;96.32;99764.98;1647329;85;21458;-63
2022/11/06 02:18:22;;;;;;;7.35;3.47;;;;;;;2.86;96.24;99765.03;1645816;86;21469;-62
2022/11/06 02:21:27;;;;;;;9.00;3.80;;;;;;;2.83;96.25;99761.21;1652488;85;20957;-63
2022/11/06 02:24:17;;;;;;;7.85;3.00;;;;;;;2.82;96.21;99762.06;1623296;88;20910;-63
2022/11/06 02:27:04;;;;;;;9.40;3.47;;;;;;;2.79;96.19;99765.98;1647595;86;21057;-63
2022/11/06 02:29:48;;;;;;;11.65;3.52;;;;;;;2.75;96.17;99766.91;1646118;85;21505;-62
2022/11/06 02:32:23;;;;;;;16.27;3.70;;;;;;;2.72;96.13;99765.67;1646093;85;21560;-62
2022/11/06 02:34:52;;;;;;;7.33;3.15;;;;;;;2.69;96.18;99759.27;1648505;85;20990;-62
2022/11/06 02:37:24;;;;;;;7.42;3.27;;;;;;;2.65;96.26;99760.18;1619942;88;20981;-62
2022/11/06 02:39:52;;;;;;;8.58;3.30;;;;;;;2.64;96.28;99764.93;1629848;86;21086;-63
2022/11/06 02:42:21;;;;;;;7.83;3.45;;;;;;;2.63;96.34;99760.62;1615173;88;21023;-63
2022/11/06 02:44:51;;;;;;;9.58;3.80;;;;;;;2.66;96.33;99765.73;1651032;85;20991;-63
2022/11/06 02:47:19;;;;;;;7.22;2.95;;;;;;;2.68;96.27;99763.55;1649719;85;20906;-62
2022/11/06 02:49:53;;;;;;;7.87;3.45;;;;;;;2.65;96.29;99765.34;1651578;85;21021;-62
2022/11/06 02:52:28;;;;;;;4.30;2.47;;;;;;;2.62;96.18;99762.80;1598552;88;21070;-63
2022/11/06 02:55:06;;;;;;;5.17;2.85;;;;;;;2.58;95.97;99768.89;1623027;87;21008;-63
2022/11/06 02:57:37;;;;;;;7.53;3.17;;;;;;;2.49;95.85;99767.27;1649407;86;20944;-63
2022/11/06 03:00:11;;;;;;;7.65;2.92;;;;;;;2.45;96.00;99767.75;1650174;86;20959;-62
2022/11/06 03:03:00;;;;;;;7.45;3.37;;;;;;;2.45;96.38;99769.03;1650637;85;21005;-63
2022/11/06 03:05:41;;;;;;;10.72;3.67;;;;;;;2.49;96.53;99770.28;1638280;85;20999;-63
2022/11/06 03:08:19;;;;;;;7.12;3.45;;;;;;;2.52;96.69;99762.09;1642573;87;20963;-63
2022/11/06 03:10:51;;;;;;;8.10;3.52;;;;;;;2.55;96.76;99761.17;1648512;86;21017;-63
2022/11/06 03:13:25;;;;;;;8.20;3.02;;;;;;;2.57;96.62;99764.59;1620978;86;21003;-63
2022/11/06 03:16:06;;;;;;;9.48;3.77;;;;;;;2.58;96.58;99762.00;1647941;86;20994;-62
2022/11/06 03:18:38;;;;;;;5.25;3.12;;;;;;;2.58;96.55;99756.00;1643006;87;21899;-62
2022/11/06 03:21:21;;;;;;;7.95;3.12;;;;;;;2.56;96.55;99761.16;1645720;85;21086;-63
2022/11/06 03:23:55;;;;;;;9.80;3.60;;;;;;;2.54;96.59;99754.33;1662134;86;21058;-63
2022/11/06 03:26:36;;;;;;;11.33;3.30;;;;;;;2.53;96.58;99757.78;1662932;85;21478;-63
2022/11/06 03:29:20;;;;;;;12.33;3.72;;;;;;;2.52;96.59;99759.52;1660549;86;21007;-62
2022/11/06 03:31:51;;;;;;;7.78;3.45;;;;;;;2.50;96.68;99762.98;1661099;86;21025;-63
2022/11/06 03:34:28;;;;;;;6.75;3.42;;;;;;;2.51;96.86;99762.95;1659282;85;20999;-63
2022/11/06 03:37:01;;;;;;;7.00;4.03;;;;;;;2.52;96.85;99759.93;1651688;85;20936;-63
2022/11/06 03:39:32;;;;;;;7.10;3.35;;;;;;;2.53;96.87;99765.52;1662725;86;20933;-62
2022/11/06 03:42:11;;;;;;;6.92;3.52;;;;;;;2.55;96.89;99763.75;1660144;86;20964;-63
2022/11/06 03:44:43;;;;;;;9.10;3.33;;;;;;;2.52;96.83;99766.38;1661532;86;21092;-63
2022/11/06 03:47:27;;;;;;;9.10;4.28;;;;;;;2.50;96.79;99768.14;1658780;85;20967;-63
2022/11/06 03:50:26;;;;;;;10.50;4.25;;;;;;;2.51;96.74;99762.95;1661433;86;20927;-63
2022/11/06 03:52:59;;;;;;;6.30;3.20;;;;;;;2.47;96.55;99758.72;1612492;87;20940;-63
2022/11/06 03:55:30;;;;;;;6.10;3.35;;;;;;;2.44;96.66;99769.92;1613055;86;21504;-63
2022/11/06 03:58:10;;;;;;;5.25;3.60;;;;;;;2.44;96.86;99767.34;1623357;86;21263;-63
2022/11/06 04:00:39;;;;;;;6.35;3.47;;;;;;;2.45;96.98;99761.31;1612597;87;21064;-63
2022/11/06 04:03:12;;;;;;;9.10;4.28;;;;;;;2.46;96.96;99763.03;1613878;87;21591;-63
2022/11/06 04:05:47;;;;;;;9.98;3.90;;;;;;;2.46;97.03;99757.87;1613845;87;20939;-63
2022/11/06 04:13:59;;;;;;;5.75;3.83;;;;;;;2.46;97.10;99752.72;1611916;88;20163;-62
2022/11/06 04:16:39;;;;;;;5.62;3.52;;;;;;;2.42;96.93;99745.89;1612582;88;20948;-63
2022/11/06 04:19:18;;;;;;;5.92;3.40;;;;;;;2.38;96.82;99749.39;1611922;87;21050;-62
2022/11/06 04:22:07;;;;;;;7.45;3.60;;;;;;;2.37;96.96;99748.95;1611730;87;20981;-63
2022/11/06 04:27:50;;;;;;;5.65;3.85;;;;;;;2.34;97.01;99745.14;1549430;91;21072;-63
2022/11/06 04:30:18;;;;;;;8.85;3.75;;;;;;;2.30;96.94;99746.06;1569122;90;20958;-63
2022/11/06 04:33:05;;;;;;;8.55;4.15;;;;;;;2.27;96.88;99748.69;1588651;89;20970;-63
2022/11/06 04:35:40;;;;;;;7.53;3.98;;;;;;;2.22;96.73;99743.58;1584787;90;21030;-63
2022/11/06 04:38:12;;;;;;;5.75;3.67;;;;;;;2.16;96.59;99747.97;1586680;90;21082;-63
2022/11/06 04:41:04;;;;;;;6.40;4.05;;;;;;;2.09;96.44;99748.91;1587815;90;21619;-62
2022/11/06 04:43:56;;;;;;;7.08;4.00;;;;;;;2.04;96.47;99750.23;1585740;89;21025;-62
2022/11/06 04:46:28;;;;;;;9.78;4.03;;;;;;;1.98;96.47;99747.30;1585426;89;21062;-62
2022/11/06 04:48:56;;;;;;;10.85;4.50;;;;;;;1.92;96.48;99752.53;1588258;89;21068;-62
2022/11/06 04:51:28;;;;;;;9.55;4.50;;;;;;;1.89;96.59;99755.14;1587217;88;21920;-62
2022/11/06 04:53:55;;;;;;;8.93;4.85;;;;;;;1.88;96.77;99752.16;1588496;88;21539;-62
2022/11/06 04:56:33;;;;;;;;;;;;;;;1.88;96.84;99763.75;1590963;90;21410;-62
2022/11/06 04:59:00;;;;;;;9.23;5.45;;;;;;;1.89;96.91;99751.28;1586731;90;20232;-62
2022/11/06 05:01:27;;;;;;;8.78;5.28;;;;;;;1.87;96.84;99751.72;1587274;90;20922;-62
2022/11/06 05:03:54;;;;;;;8.57;5.30;;;;;;;1.87;97.35;99754.30;1603387;87;21121;-63
2022/11/06 05:06:20;;;;;;;7.47;5.25;;;;;;;1.87;97.39;99754.30;1648271;85;20943;-62
2022/11/06 05:08:47;;;;;;;7.75;5.40;;;;;;;1.88;97.35;99750.03;1669329;85;21491;-63
2022/11/06 05:11:14;;;;;;;8.33;5.70;;;;;;;1.88;97.27;99756.02;1668504;84;20949;-63
2022/11/06 05:13:40;;;;;;;8.40;5.87;;;;;;;1.87;97.16;99750.88;1646337;86;20947;-62
2022/11/06 05:16:07;;;;;;;9.73;6.53;;;;;;;1.85;97.25;99761.21;1662232;86;21110;-63
2022/11/06 05:18:34;;;;;;;12.33;6.83;;;;;;;1.85;97.30;99761.21;1661858;86;20979;-62
2022/11/06 05:23:46;;;;;;;9.50;6.20;;;;;;;1.85;97.36;99765.07;1666896;86;20982;-62
2022/11/06 05:26:13;;;;;;;9.60;6.50;;;;;;;1.85;97.42;99766.36;1667480;84;20956;-63
2022/11/06 05:28:40;;;;;;;9.13;6.60;;;;;;;1.84;97.37;99759.48;1645911;85;21074;-62
2022/11/06 05:31:06;;;;;;;8.80;6.78;;;;;;;1.84;97.38;99764.63;1666207;86;21033;-62
2022/11/06 05:33:33;;;;;;;10.50;6.35;;;;;;;1.83;97.31;99766.80;1669776;86;21416;-63
2022/11/06 05:36:05;;;;;;;11.80;6.50;;;;;;;1.81;97.26;99762.09;1666494;85;21185;-62
2022/11/06 05:38:32;;;;;;;10.13;6.53;;;;;;;1.68;97.00;99745.07;1669081;86;20981;-63
2022/11/06 05:40:59;;;;;;;7.10;5.72;;;;;;;1.77;97.27;99769.45;1667123;86;21119;-62
2022/11/06 05:43:25;;;;;;;8.38;6.45;;;;;;;1.67;97.33;99743.38;1668522;84;20965;-63
2022/11/06 05:45:52;;;;;;;10.90;6.87;;;;;;;1.77;97.35;99766.88;1643915;86;20932;-62
2022/11/06 05:48:19;;;;;;;10.18;7.00;;;;;;;1.77;97.35;99765.59;1667651;86;21440;-63
2022/11/06 05:50:45;;;;;;;9.00;6.87;;;;;;;1.78;97.38;99772.43;1646045;86;20998;-62
2022/11/06 05:53:12;;;;;;;10.53;7.10;;;;;;;1.79;97.41;99763.83;1668260;86;21566;-63
2022/11/06 05:55:39;;;;;;;8.80;6.43;;;;;;;1.80;97.33;99762.98;1669083;86;20945;-62
2022/11/06 05:58:06;;;;;;;9.97;7.10;;;;;;;1.83;97.34;99768.09;1645049;87;20951;-62
2022/11/06 06:00:33;;;;;;;10.37;6.60;;;;;;;1.85;97.38;99775.38;1666086;86;20938;-63
2022/11/06 06:03:01;;;;;;;11.12;7.30;;;;;;;1.88;97.51;99774.48;1647080;86;21011;-62
2022/11/06 06:05:28;;;;;;;10.68;8.08;;;;;;;1.93;97.54;99769.70;1665454;85;21075;-62
2022/11/06 06:07:54;;;;;;;11.38;7.60;;;;;;;1.96;97.58;99769.66;1648575;85;21011;-62
2022/11/06 06:10:21;;;;;;;10.40;7.17;;;;;;;2.01;97.58;99775.59;1646487;87;20935;-62
2022/11/06 06:12:50;;;;;;;8.98;7.78;;;;;;;2.08;97.66;99775.10;1647289;86;21504;-63
2022/11/06 06:15:18;;;;;;;11.05;7.95;;;;;;;2.18;97.71;99775.83;1644436;87;20939;-63
2022/11/06 06:17:45;;;;;;;9.68;7.60;;;;;;;2.24;97.72;99777.03;1642610;86;21066;-62
2022/11/06 06:20:12;;;;;;;;;;;;;;;2.37;97.81;99777.30;1669926;86;21041;-62
2022/11/06 06:22:41;;;;;;;11.08;8.00;;;;;;;2.54;97.86;99777.52;1646488;85;20112;-62
2022/11/06 06:25:08;;;;;;;9.63;7.60;;;;;;;2.74;97.89;99774.22;1644871;87;21014;-62
2022/11/06 06:27:36;;;;;;;8.75;6.70;;;;;;;2.93;97.64;99777.83;1647394;86;21063;-62
2022/11/06 06:30:04;;;;;;;10.40;7.10;;;;;;;3.03;97.35;99785.84;1669024;86;21037;-62
2022/11/06 06:32:31;;;;;;;8.50;6.60;;;;;;;3.15;97.43;99781.77;1648454;85;20951;-63
2022/11/06 06:34:57;;;;;;;9.03;6.50;;;;;;;3.29;97.35;99783.69;1628813;87;20935;-62
2022/11/06 06:37:25;;;;;;;10.23;7.58;;;;;;;3.41;97.04;99785.64;1666010;86;20957;-62
2022/11/06 06:39:51;;;;;;;11.10;6.80;;;;;;;3.53;97.16;99784.16;1647230;85;21019;-61
2022/11/06 06:42:20;;;;;;;8.60;6.85;;;;;;;3.58;97.08;99782.33;1665658;85;20941;-63
2022/11/06 06:44:46;;;;;;;7.42;6.12;;;;;;;3.65;97.11;99782.64;1647594;84;21483;-63
2022/11/06 06:47:15;;;;;;;8.78;6.80;;;;;;;3.69;96.90;99788.14;1650037;86;21530;-62
2022/11/06 06:49:43;;;;;;;8.48;6.10;;;;;;;3.65;96.76;99786.52;1660845;86;21022;-62
2022/11/06 06:52:10;;;;;;;;;;;;;;;3.67;97.04;99787.34;1651378;85;21404;-63
2022/11/06 06:54:36;;;;;;;6.92;5.95;;;;;;;3.70;96.92;99783.41;1654262;85;21684;-62
2022/11/06 06:57:04;;;;;;;15.23;6.85;;;;;;;3.68;97.04;99780.45;1668948;86;20989;-62
2022/11/06 06:59:30;;;;;;;7.92;6.35;;;;;;;3.63;97.11;99783.09;1650019;86;21532;-62
2022/11/06 07:01:57;;;;;;;9.25;6.97;;;;;;;3.61;97.08;99781.42;1641224;87;20953;-62
2022/11/06 07:04:24;;;;;;;12.20;6.97;;;;;;;3.54;96.99;99784.56;1640861;87;21609;-62
2022/11/06 07:06:53;;;;;;;11.20;7.58;;;;;;;3.55;97.26;99784.52;1641064;86;21043;-62
2022/11/06 07:09:22;;;;;;;9.65;6.50;;;;;;;3.60;97.53;99789.61;1645516;86;20991;-62
2022/11/06 07:11:49;;;;;;;9.35;6.72;;;;;;;3.64;97.71;99789.98;1649932;86;20943;-62
2022/11/06 07:14:16;;;;;;;11.05;7.55;;;;;;;3.74;97.76;99787.63;1632604;87;20984;-63
2022/11/06 07:16:43;;;;;;;10.77;7.97;;;;;;;3.81;97.66;99791.81;1646578;85;20959;-63
2022/11/06 07:19:10;;;;;;;9.58;7.80;;;;;;;3.89;97.65;99789.52;1639596;85;21653;-63
2022/11/06 07:21:36;;;;;;;9.98;7.37;;;;;;;3.96;97.78;99788.53;1642310;87;20900;-63
2022/11/06 07:24:04;;;;;;;9.28;7.70;;;;;;;4.13;98.08;99784.33;1624425;87;20990;-61
2022/11/06 07:26:30;;;;;;;11.88;7.90;;;;;;;4.25;98.05;99783.61;1619632;88;20991;-62
2022/11/06 07:28:57;;;;;;;7.30;6.47;;;;;;;4.33;97.87;99779.59;1623873;88;21515;-62
2022/11/06 07:31:24;;;;;;;8.97;6.80;;;;;;;4.43;97.86;99780.27;1626092;88;21643;-62
2022/11/06 07:33:50;;;;;;;12.28;7.72;;;;;;;4.51;97.70;99775.78;1612541;87;20926;-63
2022/11/06 07:36:17;;;;;;;8.93;7.10;;;;;;;4.62;97.90;99776.40;1608151;88;20903;-62
2022/11/06 07:38:44;;;;;;;7.97;6.67;;;;;;;4.75;98.12;99776.11;1623245;88;20935;-62
2022/11/06 07:41:14;;;;;;;13.72;7.80;;;;;;;4.86;98.25;99777.56;1620212;88;20974;-63
2022/11/06 07:43:41;;;;;;;11.43;7.53;;;;;;;5.01;98.25;99771.17;1618477;87;21069;-63
2022/11/06 07:46:11;;;;;;;9.80;6.97;;;;;;;5.13;98.07;99776.07;1610748;87;20918;-63
2022/11/06 07:48:38;;;;;;;10.45;6.55;;;;;;;5.24;97.95;99772.38;1625704;87;20943;-63
2022/11/06 07:51:08;;;;;;;10.35;6.97;;;;;;;5.44;98.16;99764.95;1619437;87;21051;-62
2022/11/06 07:53:36;;;;;;;10.55;7.03;;;;;;;5.44;98.16;99764.95;1624965;87;20943;-62
2022/11/06 07:56:03;;;;;;;10.30;7.92;;;;;;;5.54;98.08;99763.80;1622036;88;21111;-63
2022/11/06 07:58:30;;;;;;;10.72;6.83;;;;;;;5.67;98.13;99769.53;1600977;88;20929;-63
2022/11/06 08:00:58;;;;;;;10.45;6.95;;;;;;;5.79;98.26;99768.34;1625654;86;21455;-63
2022/11/06 08:03:25;;;;;;;;;;;;;;;5.92;98.22;99766.28;1626761;86;21571;-64
2022/11/06 08:05:52;;;;;;;7.05;6.03;;;;;;;5.97;97.79;99770.48;1624440;88;20105;-63
2022/11/06 08:08:19;;;;;;;10.85;7.65;;;;;;;6.01;97.97;99770.78;1627329;85;21844;-63
2022/11/06 08:10:46;;;;;;;9.43;6.58;;;;;;;6.09;98.01;99773.17;1624326;88;21004;-63
2022/11/06 08:13:15;;;;;;;8.75;7.30;;;;;;;6.19;98.02;99776.34;1624435;86;21050;-63
2022/11/06 08:15:43;;;;;;;13.98;7.37;;;;;;;6.25;97.83;99783.97;1627844;86;21635;-63
2022/11/06 08:18:10;;;;;;;9.03;6.97;;;;;;;6.27;97.71;99783.45;1627389;86;21480;-63
2022/11/06 08:20:38;;;;;;;9.28;6.78;;;;;;;6.32;97.65;99790.66;1625710;86;21038;-63
2022/11/06 08:23:09;;;;;;;12.33;7.75;;;;;;;6.39;97.61;99790.91;1634730;86;20974;-63
2022/11/06 08:25:39;;;;;;;11.35;7.08;;;;;;;6.44;97.56;99789.03;1647859;85;20947;-63
2022/11/06 08:28:06;;;;;;;11.43;8.85;;;;;;;6.54;97.50;99791.34;1646704;86;21509;-64
2022/11/06 08:30:33;;;;;;;12.00;9.33;;;;;;;6.63;97.45;99791.06;1669450;84;20988;-64
2022/11/06 08:33:03;;;;;;;12.78;8.95;;;;;;;6.59;97.35;99789.47;1646036;85;21065;-64
2022/11/06 08:35:30;;;;;;;12.70;8.60;;;;;;;6.67;97.68;99792.69;1645162;86;21017;-63
2022/11/06 08:37:59;;;;;;;10.30;7.97;;;;;;;6.77;97.41;99788.89;1647015;85;28180;-64
2022/11/06 08:40:26;;;;;;;14.23;8.88;;;;;;;6.79;97.20;99791.00;1668487;84;21036;-64
2022/11/06 08:42:58;;;;;;;16.73;8.48;;;;;;;6.86;97.56;99791.23;1667810;84;20941;-64
2022/11/06 08:45:25;;;;;;;14.43;7.35;;;;;;;6.93;97.66;99790.13;1669219;86;21125;-64
2022/11/06 08:47:52;;;;;;;9.67;7.07;;;;;;;7.03;97.39;99789.41;1668671;84;21025;-64
2022/11/06 08:50:18;;;;;;;7.28;6.47;;;;;;;7.10;97.45;99784.85;1667939;86;21506;-64
2022/11/06 08:52:45;;;;;;;12.68;7.40;;;;;;;7.14;97.23;99778.65;1649215;86;21004;-63
2022/11/06 08:55:12;;;;;;;8.80;5.70;;;;;;;7.20;97.48;99780.20;1668655;84;20949;-64
2022/11/06 08:57:41;;;;;;;8.10;6.00;;;;;;;7.26;97.28;99782.16;1664790;85;21059;-64
2022/11/06 09:00:15;;;;;;;7.92;5.60;;;;;;;7.34;97.35;99787.96;1643868;87;21014;-64
2022/11/06 09:02:44;;;;;;;9.65;5.67;;;;;;;7.44;97.48;99779.85;1644854;87;21012;-64
2022/11/06 09:05:11;;;;;;;9.18;5.40;;;;;;;7.48;96.96;99773.64;1658850;86;21484;-64
2022/11/06 09:07:38;;;;;;;7.85;5.30;;;;;;;7.50;96.79;99779.64;1667427;84;20969;-64
2022/11/06 09:10:05;;;;;;;5.15;3.92;;;;;;;7.54;96.87;99774.76;1645326;85;21071;-64
2022/11/06 09:12:34;;;;;;;11.18;5.80;;;;;;;7.56;96.83;99774.23;1639824;86;20969;-64
2022/11/06 09:15:00;;;;;;;7.25;3.72;;;;;;;7.66;97.21;99777.38;1644031;87;21007;-64
2022/11/06 09:17:27;;;;;;;6.72;4.00;;;;;;;7.73;96.76;99777.12;1662632;86;21852;-64
2022/11/06 09:19:53;;;;;;;8.98;3.62;;;;;;;7.77;96.67;99773.50;1661111;84;20975;-64
2022/11/06 09:22:20;;;;;;;4.17;3.20;;;;;;;7.85;96.60;99771.48;1660809;86;21087;-64
2022/11/06 09:24:47;;;;;;;5.92;3.47;;;;;;;7.89;96.58;99771.38;1660478;86;20991;-64
2022/11/06 09:27:13;;;;;;;5.95;3.87;;;;;;;8.01;96.86;99765.72;1667398;84;21032;-64
2022/11/06 09:29:42;;;;;;;4.22;3.00;;;;;;;8.06;96.61;99761.21;1648541;85;21078;-64
2022/11/06 09:32:09;;;;;;;5.17;3.22;;;;;;;8.12;96.48;99763.58;1668124;84;21638;-64
2022/11/06 09:34:36;;;;;;;;;;;;;;;8.18;96.57;99755.58;1671623;85;21751;-64
2022/11/06 09:37:02;;;;;;;5.97;3.80;;;;;;;8.25;96.39;99745.33;1656072;85;20171;-64
2022/11/06 09:39:29;;;;;;;6.53;3.23;;;;;;;8.27;96.35;99744.83;1667426;84;20960;-64
2022/11/06 09:42:24;;;;;;;5.45;3.15;;;;;;;8.35;96.67;99741.10;1664307;84;20958;-65
2022/11/06 09:44:59;;;;;;;9.88;4.33;;;;;;;8.47;96.76;99743.26;1646864;86;20971;-64
2022/11/06 09:47:29;;;;;;;3.40;2.83;;;;;;;8.55;96.28;99743.81;1629781;86;22055;-65
2022/11/06 09:49:56;;;;;;;6.28;3.00;;;;;;;8.60;96.34;99741.89;1644019;85;20949;-65
2022/11/06 09:53:06;;;;;;;6.85;3.62;;;;;;;8.61;96.02;99753.98;1644549;85;21521;-65
2022/11/06 09:55:42;;;;;;;6.70;3.55;;;;;;;8.63;95.96;99748.73;1662546;84;21009;-64
2022/11/06 09:58:22;;;;;;;5.15;3.15;;;;;;;8.67;95.98;99734.67;1667740;86;20973;-65
2022/11/06 10:00:53;;;;;;;5.72;3.52;;;;;;;8.65;95.57;99739.92;1646918;85;21537;-64
2022/11/06 10:03:58;;;;;;;10.10;3.72;;;;;;;8.70;95.85;99740.59;1663340;84;21007;-65
2022/11/06 10:06:26;;;;;;;9.43;3.60;;;;;;;8.72;95.61;99738.79;1662766;85;20973;-64
2022/11/06 10:09:00;;;;;;;4.55;3.40;;;;;;;8.74;95.38;99746.55;1648364;85;20939;-65
2022/11/06 10:11:50;;;;;;;9.93;3.55;;;;;;;8.77;95.31;99732.58;1667787;86;20965;-65
2022/11/06 10:14:39;;;;;;;5.95;3.60;;;;;;;8.84;95.65;99734.00;1646097;86;21070;-64
2022/11/06 10:17:20;;;;;;;6.65;3.35;;;;;;;8.93;95.68;99731.90;1658980;86;21522;-64
2022/11/06 10:19:52;;;;;;;5.65;3.62;;;;;;;8.92;95.45;99735.85;1659479;84;21593;-64
2022/11/06 10:22:40;;;;;;;7.20;3.70;;;;;;;8.92;95.43;99726.73;1660857;86;20947;-65
2022/11/06 10:25:31;;;;;;;6.45;4.17;;;;;;;8.98;95.44;99738.20;1644710;86;21554;-65
2022/11/06 10:28:05;;;;;;;6.08;4.10;;;;;;;9.05;95.43;99740.97;1639252;87;21079;-64
2022/11/06 10:31:24;;;;;;;5.35;3.75;;;;;;;9.12;95.28;99731.97;1636615;87;20986;-64
2022/11/06 10:34:11;;;;;;;7.53;4.72;;;;;;;9.12;95.13;99726.77;1637128;87;20963;-64
2022/11/06 10:36:51;;;;;;;6.05;4.03;;;;;;;9.17;94.98;99722.22;1638451;87;21438;-64
2022/11/06 10:39:30;;;;;;;6.37;3.83;;;;;;;9.21;95.07;99722.92;1639185;86;21055;-64
2022/11/06 10:42:14;;;;;;;6.00;3.33;;;;;;;9.30;95.33;99711.27;1638535;87;21025;-65
2022/11/06 10:44:52;;;;;;;7.37;4.10;;;;;;;9.41;95.35;99713.00;1638089;86;20928;-65
2022/11/06 10:47:25;;;;;;;4.70;3.83;;;;;;;9.45;95.07;99711.94;1638456;86;20940;-64
2022/11/06 10:49:58;;;;;;;6.83;3.37;;;;;;;9.47;94.72;99705.38;1639259;87;21536;-64
2022/11/06 10:52:39;;;;;;;6.15;4.28;;;;;;;9.49;94.85;99696.55;1637545;86;21549;-64
2022/11/06 10:55:50;;;;;;;7.42;4.33;;;;;;;9.53;95.10;99692.91;1637837;86;21179;-64
2022/11/06 10:58:20;;;;;;;5.70;3.52;;;;;;;9.62;95.16;99683.84;1636360;87;20960;-65
2022/11/06 11:00:49;;;;;;;5.75;3.55;;;;;;;9.71;94.74;99682.58;1642406;87;21017;-64
2022/11/06 11:03:35;;;;;;;6.72;4.37;;;;;;;9.75;94.69;99673.73;1642812;86;21116;-64
2022/11/06 11:06:03;;;;;;;6.62;3.85;;;;;;;9.76;94.37;99676.25;1644221;87;21866;-64
2022/11/06 11:08:48;;;;;;;6.20;3.42;;;;;;;9.77;94.55;99674.48;1617850;87;21074;-64
2022/11/06 11:11:25;;;;;;;6.22;3.62;;;;;;;9.82;94.44;99672.52;1633467;86;21010;-64
2022/11/06 11:14:08;;;;;;;3.87;2.95;;;;;;;9.82;94.43;99671.22;1636240;86;21019;-64
2022/11/06 11:16:41;;;;;;;4.90;3.47;;;;;;;9.90;94.12;99668.27;1638327;86;20928;-64
2022/11/06 11:19:38;;;;;;;7.75;4.40;;;;;;;9.97;94.36;99664.02;1646595;85;21005;-65
2022/11/06 11:22:19;;;;;;;9.55;3.83;;;;;;;10.02;94.19;99667.23;1639871;86;21193;-65
2022/11/06 11:25:07;;;;;;;5.95;3.15;;;;;;;10.02;93.82;99662.02;1641780;86;20971;-65
2022/11/06 11:27:45;;;;;;;5.47;2.92;;;;;;;10.05;93.78;99659.30;1641436;87;20916;-64
2022/11/06 11:30:22;;;;;;;5.55;3.08;;;;;;;10.11;93.69;99661.21;1638299;87;20939;-65
2022/11/06 11:32:49;;;;;;;5.75;3.30;;;;;;;10.18;93.88;99666.55;1639617;86;21054;-66
2022/11/06 11:35:21;;;;;;;4.37;2.50;;;;;;;10.19;93.51;99649.97;1639171;86;21044;-66
2022/11/06 11:37:48;;;;;;;5.15;2.45;;;;;;;10.21;93.06;99645.53;1645033;85;21064;-64
2022/11/06 11:40:34;;;;;;;3.70;2.67;;;;;;;10.22;93.24;99643.30;1617842;87;20987;-66
2022/11/06 11:43:29;;;;;;;4.72;2.98;;;;;;;10.25;93.24;99639.23;1618378;87;21107;-63
2022/11/06 11:46:16;;;;;;;9.95;2.87;;;;;;;10.29;93.17;99635.61;1613775;87;20960;-64
2022/11/06 11:48:54;;;;;;;3.77;2.55;;;;;;;10.20;93.22;99629.50;1605922;88;21951;-64
2022/11/06 11:51:42;;;;;;;5.95;2.55;;;;;;;10.27;93.03;99638.74;1626802;86;20996;-64
2022/11/06 11:54:19;;;;;;;5.53;2.20;;;;;;;10.24;92.58;99632.33;1603675;88;20989;-64
2022/11/06 11:57:06;;;;;;;6.30;2.42;;;;;;;10.26;92.78;99631.34;1627512;86;21033;-64
2022/11/06 11:59:49;;;;;;;3.77;2.55;;;;;;;10.27;92.83;99634.83;1638882;86;21039;-64
2022/11/06 12:02:40;;;;;;;5.25;2.80;;;;;;;10.34;92.93;99644.07;1644884;86;21086;-65
2022/11/06 12:05:28;;;;;;;5.08;2.70;;;;;;;10.40;92.18;99637.25;1619884;87;21029;-64
2022/11/06 12:07:59;;;;;;;6.28;2.62;;;;;;;10.34;91.75;99633.63;1623546;86;21001;-63
2022/11/06 12:10:35;;;;;;;5.37;2.80;;;;;;;10.35;91.97;99632.70;1649718;86;20915;-63
2022/11/06 12:13:11;;;;;;;5.78;2.70;;;;;;;10.39;92.09;99629.05;1615832;86;21155;-64
2022/11/06 12:15:58;;;;;;;6.90;3.33;;;;;;;10.34;91.46;99635.41;1636272;86;22428;-64
2022/11/06 12:18:34;;;;;;;4.03;2.45;;;;;;;10.31;91.62;99624.65;1643903;86;21626;-64
2022/11/06 12:21:08;;;;;;;4.80;2.97;;;;;;;10.36;91.67;99626.55;1635042;86;21008;-64